Time;durP1;ratioP1;P1;durP2;ratioP2;P2;SDS_P1;SDS_P2;PMS_P1;PMS_P2;Temp;Humidity;BMP_temperature;BMP_pressure;BME280_temperature;BME280_humidity;BME280_pressure;Samples;Min_cycle;Max_cycle;Signal;HPM_P1;HPM_P2
2022/04/01 00:01:20;;;;;;;16.60;10.05;;;6.70;99.90;;;;;;4958570;29;20031;-86
2022/04/01 00:03:45;;;;;;;17.35;10.68;;;6.80;99.90;;;;;;4956268;29;20085;-88
2022/04/01 00:06:11;;;;;;;16.83;10.57;;;6.70;99.90;;;;;;4959476;29;20107;-88
2022/04/01 00:08:37;;;;;;;16.92;11.05;;;6.70;99.90;;;;;;4958314;29;20038;-87
2022/04/01 00:11:08;;;;;;;17.05;10.60;;;6.70;99.90;;;;;;4958639;29;20032;-88
2022/04/01 00:13:34;;;;;;;17.10;10.77;;;6.70;99.90;;;;;;4958485;29;20028;-88
2022/04/01 00:16:02;;;;;;;14.68;10.43;;;6.70;99.90;;;;;;4959715;28;20031;-87
2022/04/01 00:18:28;;;;;;;13.93;9.65;;;6.70;99.90;;;;;;4958537;29;20042;-88
2022/04/01 00:20:53;;;;;;;16.05;10.65;;;6.80;99.90;;;;;;4958241;28;20035;-88
2022/04/01 00:23:19;;;;;;;14.38;10.00;;;6.70;99.90;;;;;;4958393;29;20038;-89
2022/04/01 00:25:45;;;;;;;15.23;10.35;;;6.70;99.90;;;;;;4958617;29;20142;-88
2022/04/01 00:28:11;;;;;;;13.65;9.43;;;6.70;99.90;;;;;;4959466;28;20019;-88
2022/04/01 00:30:39;;;;;;;14.88;9.30;;;6.70;99.90;;;;;;4952776;29;20148;-86
2022/04/01 00:33:05;;;;;;;12.27;8.63;;;6.60;99.90;;;;;;4948409;29;20054;-88
2022/04/01 00:35:32;;;;;;;12.25;8.32;;;6.60;99.90;;;;;;4957592;29;20033;-87
2022/04/01 00:37:57;;;;;;;12.48;8.25;;;6.60;99.90;;;;;;4956759;29;20027;-86
2022/04/01 00:40:23;;;;;;;11.05;8.15;;;6.50;99.90;;;;;;4955512;29;20121;-87
2022/04/01 00:42:49;;;;;;;12.20;8.70;;;6.50;99.90;;;;;;4951086;29;20058;-88
2022/04/01 00:45:16;;;;;;;11.25;8.43;;;6.50;99.90;;;;;;4957318;29;20035;-87
2022/04/01 00:47:42;;;;;;;10.90;8.35;;;6.60;99.90;;;;;;4957781;29;20498;-87
2022/04/01 00:50:08;;;;;;;9.85;7.00;;;6.50;99.90;;;;;;4958611;29;20537;-87
2022/04/01 00:52:35;;;;;;;10.32;7.18;;;6.50;99.90;;;;;;4958296;29;20035;-87
2022/04/01 00:55:01;;;;;;;9.05;6.82;;;6.50;99.90;;;;;;4958141;28;20087;-88
2022/04/01 00:57:27;;;;;;;7.40;5.97;;;6.40;99.90;;;;;;4956466;29;20031;-87
2022/04/01 00:59:54;;;;;;;8.57;6.00;;;6.40;99.90;;;;;;4952053;29;20043;-88
2022/04/01 01:02:20;;;;;;;10.38;6.63;;;6.30;99.90;;;;;;4948827;29;20031;-87
2022/04/01 01:04:46;;;;;;;9.35;6.70;;;6.30;99.90;;;;;;4952690;28;20030;-88
2022/04/01 01:07:13;;;;;;;9.35;6.75;;;6.30;99.90;;;;;;4957200;29;20078;-88
2022/04/01 01:09:39;;;;;;;9.85;6.68;;;6.30;99.90;;;;;;4957889;29;20417;-87
2022/04/01 01:12:06;;;;;;;10.85;6.70;;;6.30;99.90;;;;;;4956780;29;20027;-88
2022/04/01 01:14:34;;;;;;;9.18;6.93;;;6.30;99.90;;;;;;4956402;29;20027;-88
2022/04/01 01:17:02;;;;;;;7.43;6.03;;;6.30;99.90;;;;;;4944427;29;20054;-87
2022/04/01 01:19:31;;;;;;;9.50;6.00;;;6.20;99.90;;;;;;4949837;29;20059;-88
2022/04/01 01:21:57;;;;;;;7.68;6.38;;;6.20;99.90;;;;;;4956878;29;20031;-88
2022/04/01 01:24:39;;;;;;;7.57;5.70;;;6.20;99.90;;;;;;4957978;28;20372;-87
2022/04/01 01:27:07;;;;;;;7.60;5.80;;;6.20;99.90;;;;;;4953456;28;20521;-87
2022/04/01 01:29:35;;;;;;;7.82;6.10;;;6.10;99.90;;;;;;4957625;28;20031;-87
2022/04/01 01:32:04;;;;;;;7.70;6.28;;;6.10;99.90;;;;;;4956999;28;20042;-87
2022/04/01 01:34:35;;;;;;;7.05;5.15;;;6.10;99.90;;;;;;4956845;29;20023;-87
2022/04/01 01:37:02;;;;;;;9.00;6.68;;;6.10;99.90;;;;;;4956318;29;20039;-87
2022/04/01 01:39:28;;;;;;;8.45;6.28;;;6.00;99.90;;;;;;4958293;28;20083;-87
2022/04/01 01:41:55;;;;;;;8.88;6.60;;;6.00;99.90;;;;;;4957107;28;20023;-87
2022/04/01 01:44:22;;;;;;;9.48;6.82;;;6.00;99.90;;;;;;4956495;29;20034;-87
2022/04/01 01:46:50;;;;;;;10.38;6.70;;;6.00;99.90;;;;;;4959618;29;20027;-86
2022/04/01 01:49:24;;;;;;;8.57;6.38;;;6.00;99.90;;;;;;4959119;29;20027;-86
2022/04/01 01:54:52;;;;;;;8.20;5.95;;;5.90;99.90;;;;;;4966881;29;20138;-86
2022/04/01 01:57:29;;;;;;;8.25;5.90;;;5.90;99.90;;;;;;4967408;29;20023;-86
2022/04/01 01:59:55;;;;;;;7.57;5.63;;;5.80;99.90;;;;;;4965116;29;20031;-88
2022/04/01 02:02:29;;;;;;;6.85;5.78;;;5.70;99.90;;;;;;4958120;29;20169;-88
2022/04/01 02:04:54;;;;;;;6.93;5.63;;;5.80;99.90;;;;;;4955871;29;20042;-88
2022/04/01 02:07:22;;;;;;;6.53;5.80;;;5.70;99.90;;;;;;4948568;29;20118;-86
2022/04/01 02:09:48;;;;;;;8.25;6.00;;;5.70;99.90;;;;;;4947187;29;20486;-87
2022/04/01 02:12:16;;;;;;;7.85;5.60;;;5.60;99.90;;;;;;4948767;28;20035;-88
2022/04/01 02:14:41;;;;;;;7.68;5.38;;;5.50;99.90;;;;;;4946357;29;20114;-88
2022/04/01 02:17:07;;;;;;;8.07;5.63;;;5.60;99.90;;;;;;4953618;29;20212;-87
2022/04/01 02:19:32;;;;;;;6.55;5.10;;;5.50;99.90;;;;;;4960185;29;20086;-88
2022/04/01 02:21:58;;;;;;;6.10;4.88;;;5.40;99.90;;;;;;4955137;29;20390;-88
2022/04/01 02:24:25;;;;;;;6.20;4.60;;;5.30;99.90;;;;;;4960872;29;20026;-88
2022/04/01 02:26:51;;;;;;;5.72;4.80;;;5.40;99.90;;;;;;4960611;29;20049;-88
2022/04/01 02:29:21;;;;;;;6.88;4.95;;;5.20;99.90;;;;;;4960998;29;20031;-87
2022/04/01 02:31:48;;;;;;;5.88;4.90;;;5.20;99.90;;;;;;4960431;28;20071;-86
2022/04/01 02:34:14;;;;;;;5.90;4.50;;;5.10;99.90;;;;;;4951128;29;20466;-87
2022/04/01 02:36:39;;;;;;;6.40;4.70;;;5.10;99.90;;;;;;4948973;29;20047;-88
2022/04/01 02:39:06;;;;;;;4.93;4.43;;;5.00;99.90;;;;;;4948816;29;20107;-88
2022/04/01 02:41:33;;;;;;;5.43;4.72;;;5.00;99.90;;;;;;4956761;28;20421;-88
2022/04/01 02:44:08;;;;;;;5.63;4.70;;;4.90;99.90;;;;;;4960127;29;20090;-87
2022/04/01 02:46:38;;;;;;;6.70;4.97;;;4.80;99.90;;;;;;4959702;29;20032;-87
2022/04/01 02:49:06;;;;;;;5.80;4.75;;;4.80;99.90;;;;;;4961094;28;20426;-85
2022/04/01 02:51:34;;;;;;;5.75;4.60;;;4.80;99.90;;;;;;4961302;28;20189;-88
2022/04/01 02:54:00;;;;;;;5.18;4.45;;;4.80;99.90;;;;;;4960581;29;20524;-88
2022/04/01 02:56:25;;;;;;;6.03;4.95;;;4.70;99.90;;;;;;4959916;29;20035;-88
2022/04/01 02:58:51;;;;;;;4.30;3.90;;;4.60;99.90;;;;;;4956114;29;20083;-87
2022/04/01 03:01:17;;;;;;;5.60;4.70;;;4.60;99.90;;;;;;4940116;29;20075;-87
2022/04/01 03:03:42;;;;;;;5.07;4.45;;;4.50;99.90;;;;;;4954874;29;20449;-87
2022/04/01 03:06:08;;;;;;;5.53;4.47;;;4.50;99.90;;;;;;4959142;29;20094;-87
2022/04/01 03:08:33;;;;;;;5.32;4.68;;;4.50;99.90;;;;;;4950911;29;20027;-87
2022/04/01 03:10:59;;;;;;;5.00;4.50;;;4.50;99.90;;;;;;4951289;29;20094;-87
2022/04/01 03:13:25;;;;;;;4.95;4.38;;;4.50;99.90;;;;;;4955551;29;20024;-88
2022/04/01 03:15:50;;;;;;;6.95;4.40;;;4.50;99.90;;;;;;4947292;29;20061;-88
2022/04/01 03:18:16;;;;;;;4.43;4.00;;;4.50;99.90;;;;;;4957526;29;20127;-87
2022/04/01 03:20:43;;;;;;;4.72;4.00;;;4.50;99.90;;;;;;4951568;29;20032;-88
2022/04/01 03:23:09;;;;;;;4.93;4.10;;;4.50;99.90;;;;;;4954179;29;20118;-88
2022/04/01 03:25:34;;;;;;;4.78;4.28;;;4.40;99.90;;;;;;4945466;28;20063;-87
2022/04/01 03:28:04;;;;;;;4.30;3.83;;;4.40;99.90;;;;;;4954052;28;20100;-86
2022/04/01 03:30:29;;;;;;;4.07;3.67;;;4.40;99.90;;;;;;4960445;29;20492;-87
2022/04/01 03:32:56;;;;;;;3.63;3.33;;;4.40;99.90;;;;;;4959960;29;20094;-86
2022/04/01 03:35:21;;;;;;;3.80;3.50;;;4.30;99.90;;;;;;4961305;28;20049;-86
2022/04/01 03:37:49;;;;;;;3.30;3.00;;;4.30;99.90;;;;;;4961017;28;20486;-87
2022/04/01 03:40:15;;;;;;;3.72;3.42;;;4.30;99.90;;;;;;4954635;29;20031;-87
2022/04/01 03:42:45;;;;;;;4.43;3.53;;;4.30;99.90;;;;;;4948253;29;20027;-87
2022/04/01 03:45:12;;;;;;;3.50;3.20;;;4.20;99.90;;;;;;4950277;29;20442;-87
2022/04/01 03:47:45;;;;;;;3.72;3.42;;;4.20;99.90;;;;;;4952358;28;20545;-87
2022/04/01 03:50:12;;;;;;;3.97;3.58;;;4.20;99.90;;;;;;4959337;29;20023;-86
2022/04/01 03:52:38;;;;;;;4.68;3.80;;;4.20;99.90;;;;;;4958120;29;20047;-87
2022/04/01 03:55:07;;;;;;;4.32;3.92;;;4.20;99.90;;;;;;4958601;29;20031;-87
2022/04/01 03:57:38;;;;;;;4.13;3.72;;;4.10;99.90;;;;;;4959468;29;20090;-86
2022/04/01 04:00:12;;;;;;;4.47;3.92;;;4.10;99.90;;;;;;4960406;28;20019;-87
2022/04/01 04:02:44;;;;;;;4.20;3.80;;;4.10;99.90;;;;;;4960227;28;20007;-86
2022/04/01 04:05:11;;;;;;;4.18;3.67;;;4.00;99.90;;;;;;4958945;29;20034;-86
2022/04/01 04:07:39;;;;;;;4.70;4.28;;;4.00;99.90;;;;;;4958692;28;20032;-86
2022/04/01 04:10:06;;;;;;;4.88;4.38;;;4.00;99.90;;;;;;4958848;29;20027;-85
2022/04/01 04:12:34;;;;;;;4.22;3.83;;;4.00;99.90;;;;;;4958240;29;20027;-86
2022/04/01 04:15:00;;;;;;;4.82;4.43;;;4.00;99.90;;;;;;4955200;28;20031;-87
2022/04/01 04:17:38;;;;;;;5.47;4.90;;;4.00;99.90;;;;;;4958962;29;20525;-87
2022/04/01 04:20:19;;;;;;;5.57;4.70;;;4.00;99.90;;;;;;4957776;29;20060;-87
2022/04/01 04:23:16;;;;;;;5.30;4.53;;;4.10;99.90;;;;;;4957394;29;20478;-87
2022/04/01 04:25:59;;;;;;;5.55;4.57;;;4.00;99.90;;;;;;4956589;29;20286;-87
2022/04/01 04:28:26;;;;;;;4.97;4.47;;;4.00;99.90;;;;;;4958778;28;20051;-87
2022/04/01 04:31:02;;;;;;;5.55;4.70;;;4.00;99.90;;;;;;4959068;28;20362;-87
2022/04/01 04:33:31;;;;;;;5.95;4.80;;;3.90;99.90;;;;;;4947006;29;20019;-87
2022/04/01 04:36:05;;;;;;;5.88;5.28;;;3.90;99.90;;;;;;4942347;29;20078;-85
2022/04/01 04:38:43;;;;;;;6.85;5.18;;;3.90;99.90;;;;;;4951861;28;20039;-86
2022/04/01 04:41:08;;;;;;;5.43;4.90;;;3.90;99.90;;;;;;4959462;28;20031;-86
2022/04/01 04:43:53;;;;;;;6.82;5.15;;;3.90;99.90;;;;;;4957710;29;20098;-87
2022/04/01 04:46:20;;;;;;;5.40;4.70;;;3.90;99.90;;;;;;4957952;29;20027;-87
2022/04/01 04:48:47;;;;;;;5.85;5.20;;;3.90;99.90;;;;;;4949731;28;20016;-86
2022/04/01 04:51:16;;;;;;;7.03;5.60;;;3.90;99.90;;;;;;4942281;29;20553;-86
2022/04/01 04:53:43;;;;;;;8.82;5.70;;;3.90;99.90;;;;;;4955162;29;20027;-86
2022/04/01 04:56:09;;;;;;;8.02;5.75;;;3.90;99.90;;;;;;4954326;29;20034;-88
2022/04/01 04:58:43;;;;;;;7.28;5.88;;;3.90;99.90;;;;;;4955197;29;20027;-86
2022/04/01 05:01:30;;;;;;;6.85;5.50;;;3.90;99.90;;;;;;4955973;28;20441;-86
2022/04/01 05:04:10;;;;;;;7.32;5.93;;;3.90;99.90;;;;;;4952120;29;20034;-86
2022/04/01 05:06:57;;;;;;;7.35;5.97;;;3.90;99.90;;;;;;4943016;29;20074;-87
2022/04/01 05:09:31;;;;;;;7.68;6.30;;;3.90;99.90;;;;;;4940750;28;20023;-87
2022/04/01 05:12:10;;;;;;;7.45;6.13;;;3.90;99.90;;;;;;4986234;23;20043;-88
2022/04/01 05:14:54;;;;;;;8.35;6.43;;;3.90;99.90;;;;;;4943926;29;20045;-88
2022/04/01 05:17:48;;;;;;;7.18;5.90;;;3.90;99.90;;;;;;4949664;29;20086;-89
2022/04/01 05:20:39;;;;;;;8.57;6.75;;;3.90;99.90;;;;;;4918097;29;20035;-88
2022/04/01 05:23:15;;;;;;;7.97;6.20;;;3.80;99.90;;;;;;4931668;29;20028;-90
2022/04/01 05:25:56;;;;;;;7.07;5.93;;;3.80;99.90;;;;;;4930690;29;20032;-89
2022/04/01 05:28:25;;;;;;;8.88;7.05;;;3.80;99.90;;;;;;4933835;29;20087;-90
2022/04/01 05:31:12;;;;;;;10.05;6.70;;;3.80;99.90;;;;;;4948186;29;20024;-89
2022/04/01 05:33:44;;;;;;;10.05;7.35;;;3.80;99.90;;;;;;4930407;29;20021;-89
2022/04/01 05:36:11;;;;;;;9.20;7.35;;;3.80;99.90;;;;;;4946492;29;20087;-90
2022/04/01 05:38:38;;;;;;;8.73;6.90;;;3.80;99.90;;;;;;4922675;29;20024;-88
2022/04/01 05:41:05;;;;;;;9.68;6.95;;;3.70;99.90;;;;;;4926183;29;20064;-90
2022/04/01 05:43:31;;;;;;;9.95;7.38;;;3.80;99.90;;;;;;4935272;29;20026;-89
2022/04/01 05:45:57;;;;;;;10.65;7.88;;;3.80;99.90;;;;;;4934870;29;20054;-89
2022/04/01 05:48:22;;;;;;;9.13;7.25;;;3.80;99.90;;;;;;4946711;29;20481;-89
2022/04/01 05:50:51;;;;;;;9.93;7.57;;;3.80;99.90;;;;;;4941173;29;20030;-89
2022/04/01 05:53:20;;;;;;;9.50;7.63;;;3.80;99.90;;;;;;4917660;29;20020;-89
2022/04/01 05:55:46;;;;;;;10.13;8.02;;;3.80;99.90;;;;;;4930117;29;20094;-89
2022/04/01 05:58:12;;;;;;;9.68;7.80;;;3.80;99.90;;;;;;4935508;29;20051;-89
2022/04/01 06:00:52;;;;;;;9.85;7.35;;;3.80;99.90;;;;;;4949844;28;20127;-89
2022/04/01 06:03:25;;;;;;;10.63;7.55;;;3.80;99.90;;;;;;4929374;29;20028;-89
2022/04/01 06:05:54;;;;;;;10.27;7.40;;;3.80;99.90;;;;;;4928244;29;20848;-89
2022/04/01 06:08:35;;;;;;;10.23;7.95;;;3.80;99.90;;;;;;4948548;29;20020;-89
2022/04/01 06:11:30;;;;;;;10.20;8.00;;;3.80;99.90;;;;;;4932966;29;20024;-89
2022/04/01 06:14:04;;;;;;;11.15;7.72;;;3.80;99.90;;;;;;4923427;29;20546;-90
2022/04/01 06:16:50;;;;;;;10.45;7.32;;;3.80;99.90;;;;;;4948911;29;20027;-89
2022/04/01 06:19:44;;;;;;;10.85;7.75;;;3.80;99.90;;;;;;4928751;29;20027;-88
2022/04/01 06:22:17;;;;;;;9.93;7.65;;;3.90;99.90;;;;;;4923803;29;20055;-90
2022/04/01 06:25:01;;;;;;;10.85;8.20;;;3.90;99.90;;;;;;4957156;29;20035;-89
2022/04/01 06:27:59;;;;;;;9.82;7.82;;;3.90;99.90;;;;;;4970443;28;20039;-88
2022/04/01 06:30:31;;;;;;;10.55;7.45;;;3.90;99.90;;;;;;4947688;28;20032;-91
2022/04/01 06:33:13;;;;;;;10.15;7.50;;;4.00;99.90;;;;;;4965842;28;20035;-89
2022/04/01 06:41:11;;;;;;;11.00;7.75;;;3.90;99.90;;;;;;5317731;23;20043;-91
2022/04/01 06:43:55;;;;;;;9.50;7.10;;;4.00;99.90;;;;;;4939817;28;20023;-91
2022/04/01 09:58:58;;;;;;;9.43;5.97;;;3.70;99.90;;;;;;4894021;29;20023;-92
2022/04/01 10:01:26;;;;;;;8.00;4.78;;;3.70;99.90;;;;;;4878992;29;20031;-92
2022/04/01 10:03:52;;;;;;;7.10;4.90;;;3.70;99.90;;;;;;4868951;29;20120;-92
2022/04/01 10:06:18;;;;;;;5.38;4.13;;;3.70;99.90;;;;;;4878514;29;20127;-94
2022/04/01 10:08:45;;;;;;;5.53;4.25;;;3.70;99.90;;;;;;4910687;29;20419;-94
2022/04/01 10:11:11;;;;;;;5.22;3.80;;;3.70;99.90;;;;;;4915623;29;20028;-93
2022/04/01 10:13:37;;;;;;;50.97;29.52;;;3.60;99.90;;;;;;4915079;29;20032;-92
2022/04/01 10:16:09;;;;;;;8.93;4.78;;;3.60;99.90;;;;;;4912141;29;20423;-93
2022/04/01 10:18:38;;;;;;;5.33;4.50;;;3.60;99.90;;;;;;4910563;29;20095;-93
2022/04/01 10:21:04;;;;;;;3.63;3.20;;;3.60;99.90;;;;;;4905333;29;20268;-91
2022/04/01 10:27:21;;;;;;;4.32;3.92;;;3.50;99.90;;;;;;4914563;29;20127;-92
2022/04/01 10:29:47;;;;;;;4.35;3.72;;;3.50;99.90;;;;;;4893832;29;20506;-92
2022/04/01 10:32:36;;;;;;;4.25;3.80;;;3.50;99.90;;;;;;4902460;29;20021;-91
2022/04/01 10:35:04;;;;;;;4.90;4.00;;;3.50;99.90;;;;;;4922986;29;20059;-92
2022/04/01 10:37:32;;;;;;;5.10;3.95;;;3.50;99.90;;;;;;4911479;29;20025;-93
2022/04/01 10:40:07;;;;;;;6.45;4.25;;;3.50;99.90;;;;;;4907866;29;20549;-93
2022/04/01 10:42:39;;;;;;;4.88;4.40;;;3.40;99.90;;;;;;4907210;29;20547;-92
2022/04/01 10:45:22;;;;;;;5.85;3.95;;;3.30;99.90;;;;;;4916827;29;20554;-92
2022/04/01 10:53:37;;;;;;;8.07;4.90;;;3.30;99.90;;;;;;4917432;29;20092;-91
2022/04/01 10:56:21;;;;;;;10.57;4.93;;;3.30;99.90;;;;;;4916577;29;20032;-91
2022/04/01 10:59:25;;;;;;;6.25;5.05;;;3.30;99.90;;;;;;4914785;29;20024;-90
2022/04/01 11:01:57;;;;;;;6.50;5.00;;;3.20;99.90;;;;;;4917454;29;20103;-91
2022/04/01 11:04:25;;;;;;;9.15;6.15;;;3.20;99.90;;;;;;4917922;29;20079;-92
2022/04/01 11:07:01;;;;;;;6.03;5.43;;;3.10;99.90;;;;;;4909773;29;20024;-91
2022/04/01 11:10:00;;;;;;;6.72;5.00;;;3.10;99.90;;;;;;4913263;29;20054;-91
2022/04/01 11:15:12;;;;;;;8.40;6.10;;;3.10;99.90;;;;;;4913566;29;20053;-86
2022/04/01 11:17:37;;;;;;;10.23;6.25;;;3.20;99.90;;;;;;4928967;29;20107;-85
2022/04/01 11:20:07;;;;;;;7.35;6.45;;;3.10;99.90;;;;;;4930789;29;20048;-86
2022/04/01 11:23:03;;;;;;;8.77;7.03;;;3.00;99.90;;;;;;4911921;29;20028;-87
2022/04/01 11:25:28;;;;;;;11.45;7.95;;;3.00;99.90;;;;;;4914173;29;20032;-86
2022/04/01 11:28:03;;;;;;;11.70;7.95;;;2.90;99.90;;;;;;4920953;29;20123;-85
2022/04/01 11:30:30;;;;;;;11.07;8.07;;;2.90;99.90;;;;;;4908186;29;20399;-87
2022/04/01 11:33:09;;;;;;;12.60;8.90;;;2.90;99.90;;;;;;4921702;29;20067;-87
2022/04/01 11:35:41;;;;;;;11.63;8.85;;;2.80;99.90;;;;;;4912847;29;20036;-88
2022/04/01 11:38:09;;;;;;;11.70;8.88;;;2.80;99.90;;;;;;4910214;29;20024;-86
2022/04/01 11:40:43;;;;;;;10.40;8.15;;;2.80;99.90;;;;;;4899939;29;20040;-87
2022/04/01 11:43:16;;;;;;;12.98;8.93;;;2.80;99.90;;;;;;4908511;29;20071;-87
2022/04/01 11:45:57;;;;;;;10.90;8.32;;;2.80;99.90;;;;;;4900435;29;20040;-87
2022/04/01 11:51:21;;;;;;;13.27;9.52;;;3.00;99.90;;;;;;4886361;29;20114;-87
2022/04/01 11:53:50;;;;;;;11.88;9.45;;;2.90;99.90;;;;;;4885077;29;20033;-86
2022/04/01 11:56:20;;;;;;;10.07;8.25;;;2.80;99.90;;;;;;4900114;29;20044;-87
2022/04/01 11:58:55;;;;;;;11.45;8.27;;;2.90;99.90;;;;;;4913480;29;20021;-87
2022/04/01 12:01:28;;;;;;;11.70;9.00;;;2.90;99.90;;;;;;4912362;29;20056;-87
2022/04/01 12:04:14;;;;;;;11.25;9.32;;;2.80;99.90;;;;;;4915671;29;20430;-87
2022/04/01 12:09:34;;;;;;;11.73;8.77;;;2.90;99.90;;;;;;4931028;29;20075;-86
2022/04/01 12:12:01;;;;;;;12.65;9.73;;;2.90;99.90;;;;;;4925894;29;20008;-86
2022/04/01 12:14:28;;;;;;;13.05;8.95;;;3.00;99.90;;;;;;4903090;29;20092;-87
2022/04/01 12:16:53;;;;;;;12.18;9.57;;;3.00;99.90;;;;;;4900980;29;20088;-88
2022/04/01 12:19:21;;;;;;;13.82;10.50;;;2.90;99.90;;;;;;4900842;29;20119;-87
2022/04/01 12:21:51;;;;;;;14.07;10.45;;;2.90;99.90;;;;;;4905639;29;20114;-86
2022/04/01 12:24:17;;;;;;;12.35;9.57;;;2.80;99.90;;;;;;4907099;29;20040;-87
2022/04/01 12:26:45;;;;;;;14.27;10.52;;;2.80;99.90;;;;;;4902341;29;20032;-88
2022/04/01 12:29:25;;;;;;;16.30;11.27;;;2.90;99.90;;;;;;4888691;29;20118;-88
2022/04/01 12:32:07;;;;;;;14.23;10.60;;;2.80;99.90;;;;;;4898281;29;20475;-89
2022/04/01 12:34:33;;;;;;;13.90;10.88;;;2.80;99.90;;;;;;4901494;29;20025;-88
2022/04/01 12:37:07;;;;;;;15.85;11.35;;;2.80;99.90;;;;;;4904359;29;20056;-87
2022/04/01 12:39:35;;;;;;;15.85;11.45;;;2.80;99.90;;;;;;4922217;29;20048;-87
2022/04/01 12:42:08;;;;;;;16.65;11.50;;;2.70;99.90;;;;;;4921934;29;20253;-86
2022/04/01 12:44:36;;;;;;;14.68;10.55;;;2.70;99.90;;;;;;4920844;29;20028;-87
2022/04/01 12:47:03;;;;;;;17.00;10.27;;;2.70;99.90;;;;;;4918189;29;20028;-88
2022/04/01 12:49:33;;;;;;;15.15;10.80;;;2.70;99.90;;;;;;4901867;29;20024;-89
2022/04/01 12:52:04;;;;;;;14.70;10.50;;;2.70;99.90;;;;;;4899044;29;20025;-88
2022/04/01 12:54:33;;;;;;;16.85;11.25;;;2.80;99.90;;;;;;4906814;29;20059;-87
2022/04/01 12:57:11;;;;;;;13.23;10.18;;;2.80;99.90;;;;;;4917609;29;20472;-88
2022/04/01 12:59:42;;;;;;;15.10;10.20;;;2.90;99.90;;;;;;4901435;29;20039;-88
2022/04/01 13:02:23;;;;;;;13.65;10.90;;;2.90;99.90;;;;;;4898352;29;20455;-88
2022/04/01 13:04:53;;;;;;;12.77;10.35;;;3.10;99.90;;;;;;4906342;29;20031;-88
2022/04/01 13:07:20;;;;;;;14.40;11.27;;;3.00;99.90;;;;;;4916853;29;20491;-88
2022/04/01 13:10:16;;;;;;;14.95;10.48;;;3.00;99.90;;;;;;4917098;29;20059;-88
2022/04/01 13:12:48;;;;;;;14.52;10.32;;;3.00;99.90;;;;;;4916625;29;20025;-88
2022/04/01 13:15:19;;;;;;;14.65;11.30;;;3.00;99.90;;;;;;4917017;29;20091;-88
2022/04/01 13:17:52;;;;;;;16.17;12.15;;;3.00;99.90;;;;;;4916795;29;20029;-88
2022/04/01 13:20:25;;;;;;;14.27;11.07;;;3.20;99.90;;;;;;4918831;29;20480;-87
2022/04/01 13:22:53;;;;;;;14.00;10.73;;;3.20;99.90;;;;;;4900216;29;20057;-87
2022/04/01 13:25:22;;;;;;;14.13;11.05;;;3.10;99.90;;;;;;4897457;29;20394;-87
2022/04/01 13:28:48;;;;;;;14.05;10.98;;;3.10;99.90;;;;;;4897641;29;20394;-88
2022/04/01 13:31:19;;;;;;;15.82;12.13;;;3.10;99.90;;;;;;4896847;29;20059;-87
2022/04/01 13:38:07;;;;;;;17.98;13.27;;;3.20;99.90;;;;;;4822535;29;20030;-87
2022/04/01 13:40:33;;;;;;;15.38;11.20;;;3.30;99.90;;;;;;4812659;29;20062;-87
2022/04/01 13:43:00;;;;;;;19.02;12.40;;;3.30;99.90;;;;;;4863622;29;20040;-88
2022/04/01 13:45:26;;;;;;;16.42;12.15;;;3.40;99.90;;;;;;4915558;29;20372;-88
2022/04/01 13:47:51;;;;;;;16.80;11.35;;;3.40;99.90;;;;;;4906830;29;20044;-88
2022/04/01 13:50:17;;;;;;;15.60;11.15;;;3.30;99.90;;;;;;4906310;29;20029;-89
2022/04/01 13:52:43;;;;;;;16.95;12.15;;;3.30;99.90;;;;;;4902487;29;20025;-88
2022/04/01 13:55:11;;;;;;;18.20;12.57;;;3.30;99.90;;;;;;4904343;29;20039;-88
2022/04/01 13:57:40;;;;;;;17.70;11.75;;;3.30;99.90;;;;;;4899230;29;20052;-88
2022/04/01 14:00:08;;;;;;;15.15;11.80;;;3.30;99.90;;;;;;4903523;29;20032;-87
2022/04/01 14:02:33;;;;;;;15.43;11.77;;;3.20;99.90;;;;;;4911871;29;20020;-88
2022/04/01 14:04:59;;;;;;;15.63;11.90;;;3.30;99.90;;;;;;4921560;29;20056;-88
2022/04/01 14:07:25;;;;;;;15.88;11.98;;;3.30;99.90;;;;;;4918246;29;20115;-88
2022/04/01 14:09:50;;;;;;;18.83;12.48;;;3.30;99.90;;;;;;4918778;29;20027;-88
2022/04/01 14:12:17;;;;;;;15.90;12.10;;;3.20;99.90;;;;;;4901541;29;20025;-89
2022/04/01 14:14:43;;;;;;;15.50;10.95;;;3.20;99.90;;;;;;4903477;29;20076;-88
2022/04/01 14:17:08;;;;;;;16.35;12.10;;;3.10;99.90;;;;;;4902366;29;20029;-88
2022/04/01 14:19:34;;;;;;;15.82;11.85;;;3.20;99.90;;;;;;4900240;29;20056;-88
2022/04/01 14:22:00;;;;;;;16.88;12.27;;;3.10;99.90;;;;;;4903925;29;20134;-88
2022/04/01 14:24:29;;;;;;;15.82;11.75;;;3.00;99.90;;;;;;4918122;29;20448;-89
2022/04/01 14:26:55;;;;;;;17.30;13.02;;;3.10;99.90;;;;;;4918439;29;20051;-88
2022/04/01 14:32:07;;;;;;;111.88;66.70;;;2.90;99.90;;;;;;4912450;29;20036;-89
2022/04/01 14:34:40;;;;;;;17.27;13.35;;;3.00;99.90;;;;;;4897902;29;20039;-88
2022/04/01 14:37:06;;;;;;;17.67;12.68;;;3.00;99.90;;;;;;4898421;29;20024;-89
2022/04/01 14:39:34;;;;;;;18.70;13.10;;;3.10;99.90;;;;;;4898097;29;20449;-88
2022/04/01 14:42:01;;;;;;;17.38;12.57;;;3.10;99.90;;;;;;4899053;29;20025;-88
2022/04/01 14:44:28;;;;;;;18.85;13.27;;;3.10;99.90;;;;;;4898580;29;20444;-88
2022/04/01 14:46:54;;;;;;;19.92;13.20;;;3.00;99.90;;;;;;4898862;29;20400;-88
2022/04/01 14:49:22;;;;;;;18.00;13.23;;;3.00;99.90;;;;;;4900390;29;20036;-89
2022/04/01 14:51:48;;;;;;;20.42;14.57;;;2.90;99.90;;;;;;4899137;29;20029;-89
2022/04/01 14:54:17;;;;;;;20.63;14.27;;;2.80;99.90;;;;;;4898533;29;20472;-88
2022/04/01 14:56:44;;;;;;;21.70;15.07;;;2.80;99.90;;;;;;4901741;29;20025;-88
2022/04/01 14:59:10;;;;;;;19.95;13.35;;;2.80;99.90;;;;;;4913997;29;20115;-87
2022/04/01 15:01:36;;;;;;;18.95;12.90;;;2.90;99.90;;;;;;4915721;29;20123;-89
2022/04/01 15:04:02;;;;;;;19.10;13.48;;;2.80;99.90;;;;;;4907268;29;20495;-88
2022/04/01 15:06:27;;;;;;;21.15;14.73;;;2.80;99.90;;;;;;4903059;29;20033;-88
2022/04/01 15:08:53;;;;;;;22.25;13.50;;;2.90;99.90;;;;;;4905832;29;20027;-87
2022/04/01 15:11:21;;;;;;;21.23;14.20;;;2.80;99.90;;;;;;4904844;29;20037;-88
2022/04/01 15:13:54;;;;;;;19.77;13.90;;;2.80;99.90;;;;;;4898891;29;20490;-87
2022/04/01 15:16:20;;;;;;;19.15;13.55;;;2.80;99.90;;;;;;4897764;29;20120;-86
2022/04/01 15:18:45;;;;;;;20.25;13.45;;;2.60;99.90;;;;;;4904372;29;20400;-86
2022/04/01 15:21:11;;;;;;;20.48;14.27;;;2.60;99.90;;;;;;4896890;29;20033;-87
2022/04/01 15:23:37;;;;;;;21.88;14.45;;;2.60;99.90;;;;;;4897837;29;20051;-87
2022/04/01 15:26:03;;;;;;;22.70;14.73;;;2.60;99.90;;;;;;4899751;29;20028;-88
2022/04/01 15:28:28;;;;;;;21.45;13.98;;;2.70;99.90;;;;;;4901143;29;20567;-86
2022/04/01 15:30:54;;;;;;;20.77;14.35;;;2.60;99.90;;;;;;4908616;29;20048;-87
2022/04/01 15:33:19;;;;;;;21.98;14.45;;;2.50;99.90;;;;;;4887917;29;20475;-87
2022/04/01 15:35:49;;;;;;;22.42;14.73;;;2.50;99.90;;;;;;4901260;29;20088;-88
2022/04/01 15:38:16;;;;;;;21.70;13.93;;;2.50;99.90;;;;;;4902875;29;20036;-86
2022/04/01 15:40:42;;;;;;;21.15;14.40;;;2.50;99.90;;;;;;4901296;29;20495;-87
2022/04/01 15:43:09;;;;;;;20.98;14.30;;;2.50;99.90;;;;;;4900650;29;20603;-87
2022/04/01 15:45:41;;;;;;;21.05;14.43;;;2.50;99.90;;;;;;4902686;29;20032;-87
2022/04/01 15:48:08;;;;;;;20.92;14.63;;;2.50;99.90;;;;;;4906263;29;20039;-88
2022/04/01 15:50:54;;;;;;;22.70;14.68;;;2.40;99.90;;;;;;4900621;29;20020;-87
2022/04/01 15:53:21;;;;;;;23.58;15.27;;;2.40;99.90;;;;;;4899678;29;20115;-87
2022/04/01 15:55:48;;;;;;;24.17;15.25;;;2.40;99.90;;;;;;4899501;29;20028;-87
2022/04/01 15:58:15;;;;;;;22.05;15.35;;;2.30;99.90;;;;;;4895602;29;20368;-87
2022/04/01 16:00:56;;;;;;;22.70;15.13;;;2.30;99.90;;;;;;4901780;29;20036;-87
2022/04/01 16:07:45;;;;;;;;;;;;;;;;;;;;;
2022/04/01 16:10:23;;;;;;;21.67;14.60;;;2.30;99.90;;;;;;4877367;29;20072;-87
2022/04/01 16:26:00;;;;;;;23.00;14.50;;;2.10;99.90;;;;;;5332199;23;20047;-95
2022/04/01 16:28:37;;;;;;;72.85;39.33;;;2.10;99.90;;;;;;4973341;29;20018;-96
2022/04/01 16:31:42;;;;;;;21.38;14.55;;;2.10;99.90;;;;;;4961985;28;20083;-95
2022/04/01 16:34:37;;;;;;;27.05;16.45;;;2.10;99.90;;;;;;4971528;28;20043;-95
2022/04/01 16:37:32;;;;;;;24.88;17.15;;;2.10;99.90;;;;;;4978702;29;20081;-96
2022/04/01 16:40:31;;;;;;;24.98;17.05;;;2.10;99.90;;;;;;4977515;29;20011;-95
2022/04/01 16:50:16;;;;;;;;;;;;;;;;;;;;;
2022/04/01 17:00:29;;;;;;;28.90;17.80;;;2.10;99.90;;;;;;4967650;29;20011;-96
2022/04/01 17:03:28;;;;;;;30.38;18.25;;;2.10;99.90;;;;;;4970071;29;20083;-96
2022/04/01 17:18:55;;;;;;;30.40;17.92;;;1.80;99.90;;;;;;4955471;29;20556;-87
2022/04/01 17:29:35;;;;;;;40.42;22.92;;;1.80;99.90;;;;;;4955914;29;20514;-86
2022/04/01 17:43:44;;;;;;;26.85;16.77;;;1.80;99.90;;;;;;4877774;29;20128;-88
2022/04/01 17:47:07;;;;;;;24.10;16.05;;;1.70;99.90;;;;;;4804308;29;20031;-88
2022/04/01 18:04:10;;;;;;;23.52;16.90;;;1.70;99.90;;;;;;4732604;30;20027;-88
2022/04/01 18:11:15;;;;;;;24.75;16.55;;;1.60;99.90;;;;;;4785138;30;20147;-89
2022/04/01 18:18:38;;;;;;;23.92;16.30;;;1.60;99.90;;;;;;4714459;30;20483;-88
2022/04/01 18:25:32;;;;;;;25.80;16.50;;;1.60;99.90;;;;;;4717549;30;20401;-88
2022/04/01 18:49:46;;;;;;;21.65;14.60;;;1.60;99.90;;;;;;4757486;30;20089;-88
2022/04/01 19:03:22;;;;;;;23.65;15.23;;;1.60;99.90;;;;;;4807952;29;20635;-91